Time;durP1;ratioP1;P1;durP2;ratioP2;P2;SDS_P1;SDS_P2;PMS_P1;PMS_P2;Temp;Humidity;BMP_temperature;BMP_pressure;BME280_temperature;BME280_humidity;BME280_pressure;Samples;Min_cycle;Max_cycle;Signal;HPM_P1;HPM_P2
2023/05/08 00:00:07;;;;;;;2.88;1.30;;;;;;;18.35;37.88;99083.88;4992922;28;20053;-78
2023/05/08 00:02:32;;;;;;;2.47;1.10;;;;;;;18.33;37.84;99083.19;4975554;28;20030;-78
2023/05/08 00:04:58;;;;;;;3.42;1.40;;;;;;;18.34;37.82;99084.84;4975639;28;20049;-78
2023/05/08 00:07:24;;;;;;;3.10;1.33;;;;;;;18.32;37.82;99089.47;4974910;28;20061;-79
2023/05/08 00:09:49;;;;;;;4.75;1.38;;;;;;;18.27;38.01;99093.41;4958330;28;20073;-77
2023/05/08 00:12:14;;;;;;;1.52;1.02;;;;;;;18.20;38.05;99095.03;4975027;28;20486;-78
2023/05/08 00:14:40;;;;;;;3.42;1.10;;;;;;;18.21;38.26;99085.28;4975173;28;20070;-78
2023/05/08 00:17:05;;;;;;;1.23;0.98;;;;;;;18.19;38.11;99081.97;4975440;28;20449;-78
2023/05/08 00:19:31;;;;;;;3.97;1.25;;;;;;;18.12;38.51;99075.66;4992867;28;20043;-77
2023/05/08 00:21:56;;;;;;;2.10;1.00;;;;;;;18.10;38.14;99075.81;4974679;28;20489;-77
2023/05/08 00:24:22;;;;;;;2.42;1.10;;;;;;;18.08;38.31;99077.78;4958787;28;20045;-78
2023/05/08 00:26:47;;;;;;;2.65;1.02;;;;;;;18.03;38.46;99080.91;4975044;28;20034;-78
2023/05/08 00:29:13;;;;;;;2.83;1.23;;;;;;;18.02;38.38;99079.25;4992565;28;20050;-77
2023/05/08 00:31:38;;;;;;;2.35;1.20;;;;;;;17.98;38.39;99074.41;4966085;28;20421;-78
2023/05/08 00:34:04;;;;;;;1.83;1.00;;;;;;;17.94;38.33;99073.91;4956081;28;20070;-78
2023/05/08 00:36:29;;;;;;;3.15;1.20;;;;;;;17.94;38.51;99070.44;4955983;28;20406;-77
2023/05/08 00:38:55;;;;;;;4.43;1.10;;;;;;;17.89;38.70;99068.28;4972899;28;20054;-78
2023/05/08 00:41:20;;;;;;;2.42;1.10;;;;;;;17.88;38.77;99064.81;4939900;28;20039;-78
2023/05/08 00:43:46;;;;;;;2.55;1.30;;;;;;;17.85;38.83;99069.53;4973189;28;20058;-77
2023/05/08 00:46:12;;;;;;;2.13;1.08;;;;;;;17.78;38.71;99063.22;4973040;28;20038;-77
2023/05/08 00:48:37;;;;;;;2.38;1.20;;;;;;;17.73;39.12;99063.69;4939882;28;20042;-77
2023/05/08 00:51:04;;;;;;;1.60;1.00;;;;;;;17.72;38.94;99068.13;4939916;28;20035;-78
2023/05/08 00:53:30;;;;;;;2.63;1.10;;;;;;;17.69;39.09;99064.97;4939600;28;20482;-78
2023/05/08 00:55:56;;;;;;;3.92;1.17;;;;;;;17.68;39.12;99063.34;4956801;28;20133;-78
2023/05/08 00:58:22;;;;;;;2.40;0.98;;;;;;;17.65;39.13;99068.94;4958775;28;20493;-78
2023/05/08 01:00:47;;;;;;;3.00;1.30;;;;;;;17.61;39.30;99072.84;4975128;28;20034;-78
2023/05/08 01:03:12;;;;;;;2.92;1.08;;;;;;;17.59;39.10;99070.34;4975084;28;20049;-77
2023/05/08 01:05:39;;;;;;;1.45;0.98;;;;;;;17.58;39.24;99067.88;4958911;28;20061;-77
2023/05/08 01:08:05;;;;;;;2.35;0.98;;;;;;;17.56;39.57;99069.84;4974980;28;20409;-77
2023/05/08 01:10:57;;;;;;;1.67;1.00;;;;;;;17.51;39.41;99071.13;4959129;28;20557;-77
2023/05/08 01:13:31;;;;;;;1.95;1.20;;;;;;;17.50;39.51;99066.00;4900497;29;20058;-77
2023/05/08 01:16:21;;;;;;;2.20;1.20;;;;;;;17.47;39.24;99072.44;4932881;29;20060;-77
2023/05/08 01:19:03;;;;;;;2.13;1.00;;;;;;;17.46;39.54;99072.59;4931722;29;20118;-77
2023/05/08 01:21:44;;;;;;;3.15;1.10;;;;;;;17.41;39.44;99086.22;4932226;29;20075;-77
2023/05/08 01:24:57;;;;;;;2.13;1.25;;;;;;;17.38;39.74;99075.97;4932285;29;20051;-78
2023/05/08 01:27:46;;;;;;;3.55;1.40;;;;;;;17.36;39.67;99080.56;4878726;29;20517;-77
2023/05/08 01:30:27;;;;;;;2.17;1.35;;;;;;;17.33;39.72;99087.00;4875795;29;20128;-76
2023/05/08 01:32:57;;;;;;;1.90;1.40;;;;;;;17.30;39.68;99078.53;4893659;29;20426;-79
2023/05/08 01:35:33;;;;;;;2.40;1.50;;;;;;;17.30;39.64;99075.88;4881079;29;20100;-76
2023/05/08 01:38:05;;;;;;;3.83;1.58;;;;;;;17.27;39.78;99076.22;4881705;29;20044;-77
2023/05/08 01:41:00;;;;;;;5.35;1.77;;;;;;;17.24;39.82;99076.53;4881328;29;20123;-76
2023/05/08 01:43:38;;;;;;;2.70;1.60;;;;;;;17.22;39.97;99079.31;4880314;29;20440;-78
2023/05/08 01:46:05;;;;;;;3.40;1.80;;;;;;;17.21;39.98;99080.28;4881193;29;20037;-76
2023/05/08 01:48:34;;;;;;;3.22;1.60;;;;;;;17.18;39.98;99075.31;4896777;29;20044;-77
2023/05/08 01:51:02;;;;;;;3.05;1.58;;;;;;;17.16;39.93;99075.44;4884420;29;20076;-79
2023/05/08 01:53:29;;;;;;;;;;;;;;;17.16;40.22;99080.72;4885068;29;20051;-76
2023/05/08 01:56:00;;;;;;;4.40;1.70;;;;;;;17.11;40.25;99085.63;4899521;29;19970;-76
2023/05/08 01:58:25;;;;;;;2.97;1.35;;;;;;;17.06;40.42;99072.03;4937595;28;20043;-76
2023/05/08 02:00:51;;;;;;;3.25;1.55;;;;;;;17.09;40.44;99081.47;4977088;28;20038;-76
2023/05/08 02:03:16;;;;;;;4.43;1.50;;;;;;;17.06;40.40;99073.88;4976793;28;20053;-77
2023/05/08 02:05:42;;;;;;;2.08;1.35;;;;;;;17.05;40.44;99078.31;4960234;28;20042;-77
2023/05/08 02:08:08;;;;;;;4.55;1.40;;;;;;;17.04;40.47;99076.66;4960814;28;20077;-77
2023/05/08 02:10:33;;;;;;;4.68;1.40;;;;;;;17.01;40.56;99071.69;4960397;28;20039;-76
2023/05/08 02:12:59;;;;;;;3.78;1.35;;;;;;;17.06;43.16;99073.88;4960550;28;20037;-75
2023/05/08 02:15:24;;;;;;;2.72;1.30;;;;;;;17.17;53.46;99077.13;4994185;28;20041;-75
2023/05/08 02:17:50;;;;;;;2.03;1.10;;;;;;;17.18;49.41;99068.22;4961125;28;20062;-80
2023/05/08 02:20:15;;;;;;;6.22;1.67;;;;;;;17.15;48.78;99065.88;4960788;28;20049;-78
2023/05/08 02:22:44;;;;;;;2.30;1.27;;;;;;;17.14;47.83;99074.78;4960363;28;20045;-77
2023/05/08 02:25:13;;;;;;;2.10;1.20;;;;;;;17.12;47.16;99075.91;4959933;28;20468;-80
2023/05/08 02:27:38;;;;;;;;;;;;;;;17.10;46.75;99073.41;4977273;28;20037;-78
2023/05/08 02:30:05;;;;;;;3.08;1.02;;;;;;;17.05;46.41;99075.69;4973113;28;19910;-78
2023/05/08 02:32:30;;;;;;;3.47;1.13;;;;;;;17.00;45.82;99073.50;4976877;28;20038;-78
2023/05/08 02:34:56;;;;;;;3.10;1.30;;;;;;;17.00;45.69;99077.94;4976375;28;20054;-78
2023/05/08 02:37:21;;;;;;;5.07;1.40;;;;;;;16.98;45.32;99071.97;4975423;28;20046;-78
2023/05/08 02:39:47;;;;;;;4.57;1.45;;;;;;;16.96;45.02;99073.94;4976233;28;20046;-79
2023/05/08 02:42:13;;;;;;;3.30;1.10;;;;;;;16.88;44.64;99061.50;4959851;28;20046;-78
2023/05/08 02:44:38;;;;;;;2.13;1.10;;;;;;;16.92;44.60;99067.28;4959922;28;20125;-78
2023/05/08 02:47:15;;;;;;;2.30;1.40;;;;;;;16.90;44.21;99067.44;4975566;28;20409;-79
2023/05/08 02:49:52;;;;;;;1.65;1.02;;;;;;;16.84;43.90;99060.13;4961902;28;20399;-78
2023/05/08 02:52:24;;;;;;;2.40;1.30;;;;;;;16.84;43.81;99057.50;4959535;28;20038;-78
2023/05/08 02:55:04;;;;;;;2.92;1.20;;;;;;;16.81;43.73;99052.50;4960545;28;20122;-78
2023/05/08 02:58:08;;;;;;;3.22;1.35;;;;;;;16.82;43.52;99057.63;4959845;28;20060;-77
2023/05/08 03:00:44;;;;;;;2.72;1.40;;;;;;;16.76;43.58;99055.59;4914150;29;20107;-79
2023/05/08 03:03:18;;;;;;;2.90;1.23;;;;;;;16.78;43.39;99056.28;4914065;29;20131;-78
2023/05/08 03:05:50;;;;;;;2.63;1.50;;;;;;;16.79;43.02;99057.94;4914140;29;20127;-82
2023/05/08 03:08:18;;;;;;;1.77;1.20;;;;;;;16.74;43.07;99046.97;4914095;29;20456;-79
2023/05/08 03:10:44;;;;;;;2.58;1.40;;;;;;;16.78;42.85;99052.81;4913778;29;20107;-79
2023/05/08 03:13:10;;;;;;;1.92;1.10;;;;;;;16.86;42.63;99063.47;4913753;29;20087;-77
2023/05/08 03:15:41;;;;;;;2.30;1.20;;;;;;;16.89;42.48;99060.53;4913920;29;20451;-81
2023/05/08 03:18:35;;;;;;;2.85;1.20;;;;;;;16.92;42.30;99062.88;4899232;29;20080;-77
2023/05/08 03:21:01;;;;;;;2.85;1.10;;;;;;;16.92;42.09;99054.13;4901506;29;20436;-76
2023/05/08 03:23:28;;;;;;;2.20;1.20;;;;;;;16.97;41.98;99062.44;4898522;29;20055;-79
2023/05/08 03:25:54;;;;;;;2.10;1.15;;;;;;;17.02;41.71;99068.06;4897845;29;20103;-76
2023/05/08 03:28:20;;;;;;;3.28;1.15;;;;;;;17.04;41.56;99058.19;4914024;29;20431;-76
2023/05/08 03:30:45;;;;;;;3.60;1.20;;;;;;;17.28;41.13;99070.75;4917680;28;20042;-76
2023/05/08 03:33:11;;;;;;;1.90;1.00;;;;;;;18.00;39.69;99068.00;4958978;28;20045;-78
2023/05/08 03:35:37;;;;;;;3.38;1.48;;;;;;;18.62;38.60;99077.53;4959248;28;20096;-82
2023/05/08 03:38:06;;;;;;;2.05;1.20;;;;;;;18.99;37.69;99073.66;4975193;28;20426;-78
2023/05/08 03:40:35;;;;;;;1.98;1.00;;;;;;;19.78;36.08;99067.91;4960280;28;20035;-78
2023/05/08 03:43:01;;;;;;;1.88;1.10;;;;;;;20.43;34.92;99072.22;4976581;28;20494;-77
2023/05/08 03:45:26;;;;;;;4.45;1.05;;;;;;;21.19;33.43;99080.41;4975922;28;20133;-78
2023/05/08 03:47:52;;;;;;;5.75;1.40;;;;;;;21.84;32.49;99088.84;4975931;28;20038;-77
2023/05/08 03:50:18;;;;;;;2.25;1.00;;;;;;;22.36;31.21;99090.66;4959930;28;20046;-77
2023/05/08 03:52:43;;;;;;;3.55;1.08;;;;;;;23.15;30.06;99096.25;4975792;28;20121;-78
2023/05/08 03:55:09;;;;;;;2.42;1.17;;;;;;;23.83;29.21;99093.97;4975743;28;20050;-77
2023/05/08 03:57:40;;;;;;;1.45;0.82;;;;;;;24.51;28.05;99098.69;4958843;28;20042;-77
2023/05/08 04:00:09;;;;;;;3.65;1.10;;;;;;;25.14;26.95;99093.16;4959133;28;20057;-78
2023/05/08 04:02:44;;;;;;;3.90;0.85;;;;;;;25.86;25.97;99096.09;4959660;28;20030;-78
2023/05/08 04:05:19;;;;;;;1.23;0.90;;;;;;;26.46;24.94;99090.63;4975846;28;20042;-78
2023/05/08 04:08:08;;;;;;;7.35;1.38;;;;;;;27.17;24.70;99099.56;4960188;28;20034;-78
2023/05/08 04:10:42;;;;;;;2.15;0.80;;;;;;;27.84;23.65;99096.38;4975562;28;20045;-78
2023/05/08 04:13:36;;;;;;;1.50;0.85;;;;;;;28.47;22.86;99089.13;4975976;28;20046;-78
2023/05/08 04:16:07;;;;;;;8.63;1.10;;;;;;;29.14;22.12;99080.19;4957107;28;20521;-78
2023/05/08 04:18:35;;;;;;;1.70;0.90;;;;;;;29.73;21.11;99088.34;4992731;28;20034;-78
2023/05/08 04:21:01;;;;;;;1.52;0.77;;;;;;;30.28;20.55;99082.59;4958977;28;20153;-78
2023/05/08 04:23:26;;;;;;;4.68;1.00;;;;;;;30.83;20.31;99083.16;4959240;28;20050;-79
2023/05/08 04:25:52;;;;;;;3.58;0.93;;;;;;;31.38;19.58;99089.78;4959223;28;20498;-78
2023/05/08 04:28:17;;;;;;;2.80;0.88;;;;;;;31.90;19.05;99092.22;4975005;28;20453;-78
2023/05/08 04:30:43;;;;;;;1.42;0.70;;;;;;;32.46;18.42;99086.75;4959132;28;20050;-79
2023/05/08 04:33:08;;;;;;;2.28;0.98;;;;;;;33.02;17.96;99090.34;4958984;28;20046;-79
2023/05/08 04:35:34;;;;;;;1.95;1.08;;;;;;;33.57;17.43;99091.09;4975208;28;20096;-79
2023/05/08 04:37:59;;;;;;;3.15;0.98;;;;;;;34.03;16.76;99091.41;4991095;28;20088;-78
2023/05/08 04:40:25;;;;;;;3.53;0.93;;;;;;;34.38;16.39;99093.50;4992460;28;20046;-79
2023/05/08 04:42:51;;;;;;;7.07;1.20;;;;;;;34.74;15.82;99087.38;4992282;28;20418;-79
2023/05/08 04:45:17;;;;;;;8.07;1.20;;;;;;;35.28;15.94;99077.97;4974807;28;20058;-78
2023/05/08 04:47:42;;;;;;;2.75;1.10;;;;;;;35.82;15.31;99082.00;4958767;28;20445;-76
2023/05/08 04:50:08;;;;;;;3.95;1.00;;;;;;;36.30;14.95;99087.88;4958699;28;20042;-78
2023/05/08 04:52:34;;;;;;;3.42;1.00;;;;;;;36.74;14.13;99076.25;4991025;28;20121;-78
2023/05/08 04:54:59;;;;;;;5.88;1.20;;;;;;;37.17;14.25;99080.31;5009741;28;20116;-77
2023/05/08 04:57:25;;;;;;;8.15;1.20;;;;;;;37.58;13.66;99082.69;4993652;28;20852;-77
2023/05/08 04:59:50;;;;;;;6.25;1.30;;;;;;;37.92;13.51;99088.06;4994074;28;20038;-78
2023/05/08 05:02:16;;;;;;;7.80;1.30;;;;;;;38.32;13.21;99083.25;5010614;28;20042;-79
2023/05/08 05:04:41;;;;;;;5.57;1.20;;;;;;;38.64;12.74;99083.69;4960670;28;20041;-78
2023/05/08 05:07:07;;;;;;;4.03;1.20;;;;;;;38.97;12.88;99076.38;5011913;28;20478;-79
2023/05/08 05:09:36;;;;;;;10.65;1.20;;;;;;;39.32;12.53;99078.84;4980878;28;20065;-80
2023/05/08 05:12:06;;;;;;;3.67;1.20;;;;;;;39.64;12.04;99082.69;5015071;28;20045;-78
2023/05/08 05:14:32;;;;;;;4.90;1.48;;;;;;;39.89;12.25;99073.19;5014764;28;20034;-78
2023/05/08 05:16:58;;;;;;;4.25;1.13;;;;;;;39.87;11.88;99076.22;4998377;28;20044;-80
2023/05/08 05:19:29;;;;;;;3.15;1.10;;;;;;;39.97;11.90;99070.56;4964924;28;20416;-81
2023/05/08 05:21:54;;;;;;;5.47;1.00;;;;;;;40.10;14.34;99082.59;5015350;28;20181;-83
2023/05/08 05:24:21;;;;;;;6.70;1.33;;;;;;;39.81;13.40;99071.97;4987006;28;20049;-79
2023/05/08 05:26:46;;;;;;;11.43;1.60;;;;;;;39.52;10.97;99074.94;5021940;28;20497;-84
2023/05/08 05:29:12;;;;;;;8.98;2.08;;;;;;;39.24;10.61;99072.94;4985601;28;20400;-83
2023/05/08 05:31:37;;;;;;;10.40;1.55;;;;;;;38.88;10.96;99069.97;5001493;28;20041;-83
2023/05/08 05:34:03;;;;;;;7.43;1.52;;;;;;;38.71;10.82;99062.31;5001916;28;20037;-84
2023/05/08 05:36:29;;;;;;;5.83;1.30;;;;;;;38.53;10.00;99053.78;4987632;28;20042;-83
2023/05/08 05:38:55;;;;;;;6.47;1.40;;;;;;;38.48;10.65;99053.06;4967024;28;20476;-82
2023/05/08 05:41:21;;;;;;;7.40;1.50;;;;;;;38.49;10.42;99052.78;4983927;28;20041;-83
2023/05/08 05:43:47;;;;;;;7.10;1.40;;;;;;;38.36;10.31;99062.47;4996288;28;20641;-82
2023/05/08 05:46:13;;;;;;;7.45;1.65;;;;;;;38.44;11.08;99066.47;4996488;28;20039;-80
2023/05/08 05:48:38;;;;;;;11.55;2.25;;;;;;;38.46;10.52;99068.91;4996922;28;20050;-84
2023/05/08 05:51:05;;;;;;;13.93;1.80;;;;;;;38.48;12.16;99064.78;4982884;28;20038;-86
2023/05/08 05:53:42;;;;;;;;;;;;;;;38.44;14.06;99062.94;4992451;28;20046;-88
2023/05/08 05:56:08;;;;;;;;;;;;;;;38.27;10.44;99052.53;5018738;28;19918;-87
2023/05/08 05:58:36;;;;;;;5.40;2.80;;;;;;;38.25;10.59;99061.00;5011458;28;19924;-86
2023/05/08 06:01:03;;;;;;;7.07;5.40;;;;;;;38.37;12.11;99061.38;4979508;28;20050;-82
2023/05/08 06:03:29;;;;;;;13.13;3.35;;;;;;;38.48;14.06;99063.97;5004187;28;20046;-87
2023/05/08 06:05:57;;;;;;;8.75;3.53;;;;;;;38.55;13.23;99064.41;5008824;28;20421;-86
2023/05/08 06:08:25;;;;;;;11.98;3.30;;;;;;;38.42;12.22;99062.44;5004003;28;20034;-81
2023/05/08 06:10:53;;;;;;;12.30;4.43;;;;;;;38.12;13.07;99048.88;4980512;28;20129;-79
2023/05/08 06:13:19;;;;;;;18.17;5.35;;;;;;;37.88;13.99;99045.38;5002135;28;20101;-85
2023/05/08 06:15:56;;;;;;;6.68;3.13;;;;;;;37.64;16.73;99049.66;4989051;28;20038;-84
2023/05/08 06:18:22;;;;;;;11.93;3.97;;;;;;;37.65;16.73;99054.03;4978530;28;20050;-78
2023/05/08 06:20:48;;;;;;;11.00;4.30;;;;;;;37.71;15.60;99056.72;4992911;28;20038;-75
2023/05/08 06:23:13;;;;;;;12.32;4.55;;;;;;;37.61;15.09;99049.44;4997123;28;20045;-82
2023/05/08 06:25:39;;;;;;;13.40;3.08;;;;;;;37.45;15.62;99052.31;4985648;28;20046;-84
2023/05/08 06:28:06;;;;;;;10.18;2.80;;;;;;;37.52;16.75;99046.53;5002394;28;20046;-86
2023/05/08 06:30:32;;;;;;;;;;;;;;;37.16;15.57;99046.00;5001320;28;20399;-80
2023/05/08 06:32:57;;;;;;;13.97;6.73;;;;;;;37.04;14.93;99044.47;4980722;28;19917;-80
2023/05/08 06:35:23;;;;;;;19.65;6.50;;;;;;;36.83;14.81;99038.41;4978376;28;20045;-82
2023/05/08 06:37:49;;;;;;;15.43;7.88;;;;;;;36.38;15.32;99043.00;4961462;28;20054;-82
2023/05/08 06:40:14;;;;;;;14.07;3.47;;;;;;;36.09;15.26;99048.25;4962133;28;20049;-82
2023/05/08 06:42:40;;;;;;;13.73;5.40;;;;;;;35.83;14.62;99038.28;4987257;28;20094;-81
2023/05/08 06:45:07;;;;;;;16.67;5.00;;;;;;;35.50;15.15;99043.25;5010955;28;20116;-80
2023/05/08 06:47:32;;;;;;;13.40;3.25;;;;;;;34.82;13.54;99037.25;4995781;28;20038;-80
2023/05/08 06:49:59;;;;;;;9.95;6.90;;;;;;;34.93;14.00;99036.16;4994769;28;20505;-80
2023/05/08 06:52:27;;;;;;;12.52;4.05;;;;;;;34.86;12.64;99035.66;4995062;28;20224;-80
2023/05/08 06:54:52;;;;;;;10.65;4.70;;;;;;;34.79;13.73;99031.28;5009044;28;20045;-79
2023/05/08 06:57:18;;;;;;;9.40;4.05;;;;;;;34.86;13.87;99032.94;4992983;28;20034;-80
2023/05/08 06:59:46;;;;;;;9.68;3.20;;;;;;;34.86;13.61;99036.44;5003602;28;20047;-90
2023/05/08 07:02:11;;;;;;;9.95;3.65;;;;;;;34.80;14.31;99037.53;5002346;28;20125;-88
2023/05/08 07:04:38;;;;;;;9.30;3.10;;;;;;;34.81;15.64;99017.47;5001921;28;20049;-83
2023/05/08 07:07:05;;;;;;;13.87;2.70;;;;;;;34.81;13.02;99027.47;4993480;28;20042;-86
2023/05/08 07:09:31;;;;;;;10.65;2.60;;;;;;;34.66;14.40;99026.34;5005545;28;20052;-81
2023/05/08 07:11:56;;;;;;;8.50;4.55;;;;;;;34.78;14.59;99028.84;5006705;28;20042;-85
2023/05/08 07:14:22;;;;;;;10.25;5.38;;;;;;;34.80;15.72;99034.81;5002901;28;20112;-83
2023/05/08 07:16:47;;;;;;;16.70;4.38;;;;;;;34.61;14.91;99029.06;4986755;28;20022;-87
2023/05/08 07:19:13;;;;;;;10.57;4.82;;;;;;;34.59;15.13;99031.22;5000497;28;20053;-80
2023/05/08 07:21:39;;;;;;;10.30;3.60;;;;;;;34.61;15.32;99024.44;5003017;28;20082;-85
2023/05/08 07:24:05;;;;;;;8.80;4.20;;;;;;;34.59;16.30;99020.41;5003635;28;20057;-88
2023/05/08 07:26:30;;;;;;;9.80;3.90;;;;;;;34.72;17.31;99019.84;5007380;28;20112;-85
2023/05/08 07:28:59;;;;;;;11.35;3.25;;;;;;;34.64;17.20;99025.00;4978848;28;20050;-86
2023/05/08 07:31:25;;;;;;;7.75;2.78;;;;;;;34.76;17.23;99018.28;4990337;28;20104;-76
2023/05/08 07:33:50;;;;;;;10.57;5.65;;;;;;;35.14;17.92;99023.44;4992728;28;20038;-77
2023/05/08 07:36:17;;;;;;;10.82;7.43;;;;;;;35.44;20.15;99030.75;4986011;28;20066;-79
2023/05/08 07:38:42;;;;;;;7.15;5.07;;;;;;;35.74;18.62;99023.66;4975746;28;20038;-77
2023/05/08 07:41:08;;;;;;;6.47;2.70;;;;;;;35.85;17.58;99027.16;4992600;28;20053;-79
2023/05/08 07:43:37;;;;;;;7.40;3.47;;;;;;;35.95;17.54;99018.97;4958929;28;20109;-78
2023/05/08 07:46:04;;;;;;;9.00;3.60;;;;;;;35.96;16.76;99022.50;4975738;28;20408;-77
2023/05/08 07:48:29;;;;;;;14.48;5.47;;;;;;;35.99;17.54;99025.50;4975197;28;20088;-78
2023/05/08 07:50:55;;;;;;;13.57;5.97;;;;;;;36.19;17.35;99021.03;4993018;28;20038;-79
2023/05/08 07:53:20;;;;;;;12.18;5.47;;;;;;;36.31;17.47;99018.84;4975186;28;20425;-80
2023/05/08 07:55:46;;;;;;;11.27;6.88;;;;;;;36.40;19.29;99027.22;4975425;28;20076;-78
2023/05/08 07:58:11;;;;;;;12.00;7.10;;;;;;;36.60;18.22;99023.56;4959585;28;20046;-75
2023/05/08 08:00:38;;;;;;;8.43;3.95;;;;;;;36.44;16.50;99014.69;4992189;28;20050;-77
2023/05/08 08:03:04;;;;;;;8.10;4.78;;;;;;;36.13;17.53;99014.00;4943421;28;20520;-78
2023/05/08 08:05:30;;;;;;;8.63;2.58;;;;;;;36.13;15.42;99016.72;4944687;28;20042;-81
2023/05/08 08:07:56;;;;;;;6.63;2.00;;;;;;;35.85;14.90;99003.53;4975853;28;20493;-77
2023/05/08 08:10:23;;;;;;;9.40;2.92;;;;;;;35.76;15.77;99007.91;4974650;28;20092;-77
2023/05/08 08:12:49;;;;;;;7.05;2.95;;;;;;;35.62;16.43;98999.50;4959016;28;20042;-81
2023/05/08 08:15:14;;;;;;;14.85;2.85;;;;;;;35.66;17.39;99010.63;4941974;28;20461;-77
2023/05/08 08:17:40;;;;;;;17.60;2.35;;;;;;;35.39;15.54;99011.75;4976210;28;20042;-80
2023/05/08 08:20:06;;;;;;;11.15;2.10;;;;;;;35.11;15.00;99010.44;4961737;28;20490;-82
2023/05/08 08:22:32;;;;;;;6.85;2.03;;;;;;;35.04;15.20;99002.53;4976892;28;20038;-79
2023/05/08 08:24:58;;;;;;;10.70;1.92;;;;;;;34.92;15.22;98991.19;4992182;28;20061;-79
2023/05/08 08:27:24;;;;;;;10.47;2.30;;;;;;;34.92;15.22;99002.81;4958463;28;20080;-78
2023/05/08 08:29:50;;;;;;;5.25;1.83;;;;;;;34.86;14.57;98997.69;4941224;28;20070;-77
2023/05/08 08:32:15;;;;;;;8.10;2.13;;;;;;;34.82;14.78;98994.69;4993040;28;20070;-78
2023/05/08 08:34:41;;;;;;;6.53;2.00;;;;;;;34.86;14.62;98990.34;4992937;28;20038;-78
2023/05/08 08:37:06;;;;;;;5.47;2.08;;;;;;;34.82;14.59;98983.03;4958767;28;20057;-78
2023/05/08 08:39:33;;;;;;;5.05;1.70;;;;;;;34.82;14.69;98983.84;4975376;28;20049;-78
2023/05/08 08:41:58;;;;;;;6.40;1.95;;;;;;;34.75;14.47;98978.69;4959632;28;20038;-77
2023/05/08 08:44:24;;;;;;;5.13;1.80;;;;;;;34.77;14.47;98979.22;4962816;28;20117;-78
2023/05/08 08:46:50;;;;;;;9.80;2.22;;;;;;;34.72;14.61;98979.19;4979280;28;20478;-78
2023/05/08 08:49:31;;;;;;;5.32;2.00;;;;;;;34.70;14.44;98975.13;4995495;28;20077;-78
2023/05/08 08:51:58;;;;;;;5.55;1.90;;;;;;;34.61;14.55;98974.84;4995738;28;20050;-79
2023/05/08 08:54:24;;;;;;;6.47;1.80;;;;;;;34.60;14.86;98978.63;4995501;28;20485;-77
2023/05/08 08:56:50;;;;;;;7.38;2.05;;;;;;;34.56;15.16;98972.13;4963182;28;20098;-77
2023/05/08 08:59:17;;;;;;;7.77;1.73;;;;;;;34.56;15.15;98962.09;4979592;28;20414;-78
2023/05/08 09:01:44;;;;;;;11.15;1.83;;;;;;;34.46;15.21;98966.69;4979964;28;20034;-77
2023/05/08 09:04:10;;;;;;;4.63;1.60;;;;;;;34.35;15.16;98961.28;4978929;28;20042;-78
2023/05/08 09:06:36;;;;;;;5.03;1.60;;;;;;;34.33;15.07;98966.16;4963106;28;20496;-78
2023/05/08 09:09:02;;;;;;;8.43;1.70;;;;;;;34.28;15.17;98968.81;4979176;28;20038;-76
2023/05/08 09:11:27;;;;;;;7.78;1.83;;;;;;;34.13;15.56;98963.34;4978869;28;20065;-76
2023/05/08 09:13:56;;;;;;;5.32;1.75;;;;;;;33.95;15.69;98953.81;4962603;28;20046;-77
2023/05/08 09:16:22;;;;;;;5.07;1.80;;;;;;;33.82;15.63;98958.63;4978748;28;20113;-78
2023/05/08 09:18:48;;;;;;;8.40;1.80;;;;;;;33.75;16.05;98962.66;4978992;28;20130;-77
2023/05/08 09:21:13;;;;;;;7.93;1.80;;;;;;;33.72;16.20;98956.69;4962567;28;20056;-79
2023/05/08 09:24:02;;;;;;;5.53;1.60;;;;;;;33.66;16.50;98949.59;4963250;28;20046;-78
2023/05/08 09:26:38;;;;;;;5.45;1.70;;;;;;;33.55;16.31;98953.34;4963439;28;20042;-78
2023/05/08 09:29:12;;;;;;;10.20;1.92;;;;;;;33.46;16.48;98944.94;4964047;28;20046;-78
2023/05/08 09:31:45;;;;;;;7.57;1.73;;;;;;;33.43;17.03;98939.19;4995903;28;20034;-78
2023/05/08 09:34:20;;;;;;;5.90;1.80;;;;;;;33.37;16.78;98938.38;4947245;28;20424;-78
2023/05/08 09:36:46;;;;;;;7.00;1.70;;;;;;;33.26;17.28;98932.09;4963928;28;20046;-78
2023/05/08 09:39:11;;;;;;;6.43;2.20;;;;;;;33.10;17.61;98933.84;4962332;28;20038;-81
2023/05/08 09:41:37;;;;;;;6.05;1.83;;;;;;;32.98;17.38;98927.81;4977614;28;20136;-78
2023/05/08 09:44:03;;;;;;;7.40;1.80;;;;;;;32.73;17.39;98929.25;4958622;28;20137;-77
2023/05/08 09:46:29;;;;;;;4.50;1.90;;;;;;;32.55;17.94;98933.13;4976459;28;20031;-79
2023/05/08 09:48:57;;;;;;;6.80;2.05;;;;;;;32.44;17.95;98928.69;4974905;28;20047;-82
2023/05/08 09:51:23;;;;;;;8.25;1.95;;;;;;;32.31;18.08;98911.03;4974997;28;20035;-82
2023/05/08 09:53:52;;;;;;;9.98;2.00;;;;;;;32.20;18.40;98922.81;4957912;28;20173;-82
2023/05/08 09:56:32;;;;;;;10.35;2.03;;;;;;;32.01;18.79;98908.81;4975152;28;20039;-77
2023/05/08 09:58:58;;;;;;;10.52;1.88;;;;;;;32.00;18.82;98907.97;4958614;28;20039;-78
2023/05/08 10:01:34;;;;;;;9.68;2.17;;;;;;;31.93;18.97;98907.38;4958783;28;20101;-79
2023/05/08 10:04:00;;;;;;;6.80;1.70;;;;;;;31.83;19.29;98899.94;4959108;28;20121;-77
2023/05/08 10:06:27;;;;;;;9.20;1.80;;;;;;;31.76;19.48;98893.94;4942828;28;20637;-83
2023/05/08 10:09:08;;;;;;;6.55;1.88;;;;;;;31.65;19.58;98884.09;4943277;28;20047;-79
2023/05/08 10:11:34;;;;;;;10.48;1.80;;;;;;;31.57;19.82;98871.88;4958738;28;20038;-82
2023/05/08 10:14:00;;;;;;;7.63;1.98;;;;;;;31.39;19.54;98875.63;4942344;28;20061;-78
2023/05/08 10:16:25;;;;;;;4.95;1.77;;;;;;;31.00;20.15;98878.38;4974423;28;20119;-77
2023/05/08 10:18:51;;;;;;;8.20;2.00;;;;;;;30.77;20.74;98880.13;4973829;28;20114;-76
2023/05/08 10:21:17;;;;;;;5.70;1.90;;;;;;;30.74;20.88;98869.88;4974469;28;20486;-78
2023/05/08 10:23:43;;;;;;;5.45;1.73;;;;;;;30.64;20.52;98867.81;4975534;28;20114;-76
2023/05/08 10:26:13;;;;;;;5.05;1.58;;;;;;;30.53;21.38;98878.69;4957806;28;20034;-78
2023/05/08 10:28:49;;;;;;;8.90;1.45;;;;;;;30.30;21.29;98873.16;4973488;28;20529;-78
2023/05/08 10:31:16;;;;;;;5.72;1.50;;;;;;;30.16;21.61;98876.38;4978857;28;20343;-79
2023/05/08 10:33:42;;;;;;;6.68;1.85;;;;;;;29.93;21.86;98859.28;4961182;28;20042;-78
2023/05/08 10:36:08;;;;;;;9.10;1.80;;;;;;;29.78;22.16;98860.59;4993908;28;20409;-77
2023/05/08 10:38:35;;;;;;;5.18;1.50;;;;;;;29.72;22.43;98860.75;4993513;28;20122;-78
2023/05/08 10:41:01;;;;;;;7.38;1.88;;;;;;;29.72;22.27;98855.38;4977058;28;20042;-78
2023/05/08 10:43:28;;;;;;;4.45;1.80;;;;;;;29.70;22.40;98860.19;4995759;28;20096;-78
2023/05/08 10:45:53;;;;;;;4.90;1.60;;;;;;;29.63;22.35;98859.50;4980936;28;20493;-77
2023/05/08 10:49:06;;;;;;;4.05;1.70;;;;;;;29.26;22.61;98867.88;4980280;28;20045;-78
2023/05/08 10:51:40;;;;;;;6.40;1.65;;;;;;;29.10;22.62;98862.13;4937665;29;20131;-81
2023/05/08 10:54:18;;;;;;;8.30;1.80;;;;;;;28.97;23.14;98857.84;4922724;29;20049;-79
2023/05/08 10:56:43;;;;;;;12.50;1.88;;;;;;;28.89;23.25;98860.84;4937403;29;20475;-78
2023/05/08 10:59:17;;;;;;;7.15;1.73;;;;;;;28.75;23.40;98854.91;4953637;29;20042;-81
2023/05/08 11:01:42;;;;;;;8.77;1.88;;;;;;;28.74;23.61;98853.25;4922312;29;20043;-79
2023/05/08 11:04:21;;;;;;;5.38;1.90;;;;;;;28.60;23.87;98851.84;4922063;29;20059;-79
2023/05/08 11:06:47;;;;;;;6.18;1.65;;;;;;;28.51;24.11;98849.47;4904922;29;20426;-84
2023/05/08 11:09:25;;;;;;;6.10;1.73;;;;;;;28.44;24.53;98853.31;4937862;29;20043;-78
2023/05/08 11:12:07;;;;;;;6.47;1.73;;;;;;;28.27;24.52;98848.59;4936994;29;20090;-81
2023/05/08 11:14:35;;;;;;;5.32;1.92;;;;;;;28.18;24.82;98846.47;4920956;29;20126;-80
2023/05/08 11:17:01;;;;;;;13.05;2.30;;;;;;;28.04;25.00;98843.16;4921778;29;20611;-81
2023/05/08 11:19:27;;;;;;;10.32;1.67;;;;;;;28.01;25.02;98833.72;4953286;29;20047;-79
2023/05/08 11:22:14;;;;;;;10.25;2.22;;;;;;;27.99;25.22;98830.47;4920865;29;20134;-79
2023/05/08 11:24:55;;;;;;;12.70;2.10;;;;;;;27.97;25.17;98833.38;4953436;29;20091;-79
2023/05/08 11:27:47;;;;;;;7.93;1.85;;;;;;;27.90;25.36;98831.78;4979042;28;20129;-81
2023/05/08 11:30:25;;;;;;;8.60;1.67;;;;;;;27.84;25.27;98832.69;4952857;29;20457;-81
2023/05/08 11:33:03;;;;;;;5.18;1.60;;;;;;;27.81;25.66;98823.22;4936805;29;20039;-80
2023/05/08 11:35:50;;;;;;;3.53;1.67;;;;;;;27.79;25.68;98815.41;4952832;29;20039;-79
2023/05/08 11:38:24;;;;;;;5.88;1.83;;;;;;;27.77;25.71;98820.19;4937014;29;20047;-81
2023/05/08 11:41:00;;;;;;;6.63;1.90;;;;;;;27.70;25.76;98821.31;4952947;29;20043;-79